Eskdalemuir, United Kingdom
Current Conditions -  °F | °C
As of 3:50 AM on Wednesday 22 Oct 2014 (Local Time) from EGOM Reporting Station
Few Clouds Few Clouds  
Wind Chill: 32°   Ceiling: Unl
Heat Index: 41°   Visibility: 6mi
Dew Point: 39°   Wind: 18mph
Humidity: 93%   Direction: 270°W
Pressure: 30.03"   Gusts: NA
Location:  55.27°N, 3.18°W
Report Text: EGOM 220250Z AUTO 27016KT 9999 FEW020/// 05/04 Q1017
Loading
Personal Weather Stations






























Interactive Weather Map
Tropical Storm Tracking
New forecast layout! Learn more

10-Day Weather Forecast

Advertisements
Track Severe Weather on mobile